sensor_id;sensor_type;location;lat;lon;timestamp;pressure;altitude;pressure_sealevel;temperature;humidity
23303;BME280;11820;48.738;9.092;2022-11-20T00:03:42;95758.53;;;6.17;nan
23303;BME280;11820;48.738;9.092;2022-11-20T00:06:10;95753.16;;;6.12;nan
23303;BME280;11820;48.738;9.092;2022-11-20T00:08:36;95754.28;;;6.09;nan
23303;BME280;11820;48.738;9.092;2022-11-20T00:11:06;95764.56;;;6.09;nan
23303;BME280;11820;48.738;9.092;2022-11-20T00:13:33;95760.13;;;6.03;nan
23303;BME280;11820;48.738;9.092;2022-11-20T00:16:00;95754.75;;;5.98;nan
23303;BME280;11820;48.738;9.092;2022-11-20T00:18:26;95757.06;;;5.93;nan
23303;BME280;11820;48.738;9.092;2022-11-20T00:20:51;95754.72;;;6.13;nan
23303;BME280;11820;48.738;9.092;2022-11-20T00:23:16;95759.50;;;6.16;nan
23303;BME280;11820;48.738;9.092;2022-11-20T00:25:42;95752.53;;;6.10;nan
23303;BME280;11820;48.738;9.092;2022-11-20T00:28:07;95757.41;;;6.05;nan
23303;BME280;11820;48.738;9.092;2022-11-20T00:30:32;95757.13;;;6.14;nan
23303;BME280;11820;48.738;9.092;2022-11-20T00:32:58;95758.25;;;6.26;nan
23303;BME280;11820;48.738;9.092;2022-11-20T00:35:23;95753.50;;;6.23;nan
23303;BME280;11820;48.738;9.092;2022-11-20T00:37:48;95757.72;;;6.31;nan
23303;BME280;11820;48.738;9.092;2022-11-20T00:40:14;95753.28;;;6.25;nan
23303;BME280;11820;48.738;9.092;2022-11-20T00:42:39;95755.34;;;6.29;nan
23303;BME280;11820;48.738;9.092;2022-11-20T00:45:05;95758.09;;;6.28;nan
23303;BME280;11820;48.738;9.092;2022-11-20T00:47:30;95755.53;;;6.28;nan
23303;BME280;11820;48.738;9.092;2022-11-20T00:49:55;95758.78;;;6.22;nan
23303;BME280;11820;48.738;9.092;2022-11-20T00:52:21;95757.19;;;6.21;nan
23303;BME280;11820;48.738;9.092;2022-11-20T00:54:46;95758.78;;;6.22;nan
23303;BME280;11820;48.738;9.092;2022-11-20T00:57:11;95769.78;;;6.16;nan
23303;BME280;11820;48.738;9.092;2022-11-20T00:59:37;95770.38;;;6.18;nan
23303;BME280;11820;48.738;9.092;2022-11-20T01:02:02;95766.44;;;6.15;nan
23303;BME280;11820;48.738;9.092;2022-11-20T01:04:27;95759.59;;;6.22;nan
23303;BME280;11820;48.738;9.092;2022-11-20T01:06:52;95768.06;;;6.23;nan
23303;BME280;11820;48.738;9.092;2022-11-20T01:09:18;95768.38;;;6.13;nan
23303;BME280;11820;48.738;9.092;2022-11-20T01:11:44;95762.28;;;6.14;nan
23303;BME280;11820;48.738;9.092;2022-11-20T01:14:13;95767.06;;;6.03;nan
23303;BME280;11820;48.738;9.092;2022-11-20T01:16:44;95766.44;;;6.01;nan
23303;BME280;11820;48.738;9.092;2022-11-20T01:19:13;95772.25;;;5.95;nan
23303;BME280;11820;48.738;9.092;2022-11-20T01:21:40;95783.69;;;5.92;nan
23303;BME280;11820;48.738;9.092;2022-11-20T01:24:10;95785.41;;;5.77;nan
23303;BME280;11820;48.738;9.092;2022-11-20T01:26:38;95780.16;;;5.71;nan
23303;BME280;11820;48.738;9.092;2022-11-20T01:29:04;95785.38;;;5.63;nan
23303;BME280;11820;48.738;9.092;2022-11-20T01:31:35;95785.53;;;5.47;nan
23303;BME280;11820;48.738;9.092;2022-11-20T01:34:13;95789.09;;;5.60;nan
23303;BME280;11820;48.738;9.092;2022-11-20T01:36:39;95787.84;;;5.56;nan
23303;BME280;11820;48.738;9.092;2022-11-20T01:39:10;95786.19;;;5.49;nan
23303;BME280;11820;48.738;9.092;2022-11-20T01:41:36;95779.34;;;5.41;nan
23303;BME280;11820;48.738;9.092;2022-11-20T01:44:39;95773.63;;;5.54;nan
23303;BME280;11820;48.738;9.092;2022-11-20T01:47:09;95778.41;;;5.57;nan
23303;BME280;11820;48.738;9.092;2022-11-20T01:49:44;95776.69;;;5.49;nan
23303;BME280;11820;48.738;9.092;2022-11-20T01:52:20;95775.63;;;5.44;nan
23303;BME280;11820;48.738;9.092;2022-11-20T01:55:36;95782.19;;;5.46;nan
23303;BME280;11820;48.738;9.092;2022-11-20T01:58:01;95775.53;;;5.37;nan
23303;BME280;11820;48.738;9.092;2022-11-20T02:00:27;95772.63;;;5.40;nan
23303;BME280;11820;48.738;9.092;2022-11-20T02:02:58;95776.66;;;5.35;nan
23303;BME280;11820;48.738;9.092;2022-11-20T02:05:31;95778.97;;;5.30;nan
23303;BME280;11820;48.738;9.092;2022-11-20T02:07:58;95775.34;;;5.39;nan
23303;BME280;11820;48.738;9.092;2022-11-20T02:10:24;95784.53;;;5.33;nan
23303;BME280;11820;48.738;9.092;2022-11-20T02:12:51;95779.50;;;5.40;nan
23303;BME280;11820;48.738;9.092;2022-11-20T02:15:35;95778.53;;;5.41;nan
23303;BME280;11820;48.738;9.092;2022-11-20T02:18:00;95778.09;;;5.37;nan
23303;BME280;11820;48.738;9.092;2022-11-20T02:20:26;95774.47;;;5.32;nan
23303;BME280;11820;48.738;9.092;2022-11-20T02:22:56;95771.13;;;5.46;nan
23303;BME280;11820;48.738;9.092;2022-11-20T02:25:24;95775.56;;;5.52;nan
23303;BME280;11820;48.738;9.092;2022-11-20T02:27:51;95773.34;;;5.49;nan
23303;BME280;11820;48.738;9.092;2022-11-20T02:30:16;95776.84;;;5.48;nan
23303;BME280;11820;48.738;9.092;2022-11-20T02:32:42;95779.59;;;5.32;nan
23303;BME280;11820;48.738;9.092;2022-11-20T02:37:48;95776.44;;;5.44;nan
23303;BME280;11820;48.738;9.092;2022-11-20T02:40:14;95782.34;;;5.45;nan
23303;BME280;11820;48.738;9.092;2022-11-20T02:42:39;95789.00;;;5.54;nan
23303;BME280;11820;48.738;9.092;2022-11-20T02:45:05;95783.06;;;5.53;nan
23303;BME280;11820;48.738;9.092;2022-11-20T02:47:31;95771.31;;;5.59;nan
23303;BME280;11820;48.738;9.092;2022-11-20T02:49:56;95780.34;;;5.55;nan
23303;BME280;11820;48.738;9.092;2022-11-20T02:52:22;95781.69;;;5.65;nan
23303;BME280;11820;48.738;9.092;2022-11-20T02:54:48;95776.63;;;5.57;nan
23303;BME280;11820;48.738;9.092;2022-11-20T02:57:13;95772.91;;;5.60;nan
23303;BME280;11820;48.738;9.092;2022-11-20T02:59:38;95786.00;;;5.65;nan
23303;BME280;11820;48.738;9.092;2022-11-20T03:02:04;95789.53;;;5.64;nan
23303;BME280;11820;48.738;9.092;2022-11-20T03:04:30;95776.56;;;5.65;nan
23303;BME280;11820;48.738;9.092;2022-11-20T03:06:55;95793.09;;;5.63;nan
23303;BME280;11820;48.738;9.092;2022-11-20T03:09:20;95787.06;;;5.56;nan
23303;BME280;11820;48.738;9.092;2022-11-20T03:11:46;95784.50;;;5.70;nan
23303;BME280;11820;48.738;9.092;2022-11-20T03:14:11;95781.59;;;5.59;nan
23303;BME280;11820;48.738;9.092;2022-11-20T03:16:37;95785.38;;;5.63;nan
23303;BME280;11820;48.738;9.092;2022-11-20T03:19:02;95775.41;;;5.68;nan
23303;BME280;11820;48.738;9.092;2022-11-20T03:21:27;95779.28;;;5.64;nan
23303;BME280;11820;48.738;9.092;2022-11-20T03:23:53;95782.47;;;5.66;nan
23303;BME280;11820;48.738;9.092;2022-11-20T03:26:24;95776.81;;;5.56;nan
23303;BME280;11820;48.738;9.092;2022-11-20T03:28:55;95773.06;;;5.58;nan
23303;BME280;11820;48.738;9.092;2022-11-20T03:31:26;95767.94;;;5.58;nan
23303;BME280;11820;48.738;9.092;2022-11-20T03:33:52;95765.22;;;5.60;nan
23303;BME280;11820;48.738;9.092;2022-11-20T03:36:18;95765.00;;;5.47;nan
23303;BME280;11820;48.738;9.092;2022-11-20T03:38:44;95765.09;;;5.39;nan
23303;BME280;11820;48.738;9.092;2022-11-20T03:41:16;95759.59;;;5.27;nan
23303;BME280;11820;48.738;9.092;2022-11-20T03:44:08;95755.72;;;5.31;nan
23303;BME280;11820;48.738;9.092;2022-11-20T03:46:32;95757.81;;;5.13;nan
23303;BME280;11820;48.738;9.092;2022-11-20T03:48:58;95767.28;;;5.27;nan
23303;BME280;11820;48.738;9.092;2022-11-20T03:51:29;95763.31;;;5.25;nan
23303;BME280;11820;48.738;9.092;2022-11-20T03:53:57;95757.63;;;5.15;nan
23303;BME280;11820;48.738;9.092;2022-11-20T03:56:24;95761.03;;;5.07;nan
23303;BME280;11820;48.738;9.092;2022-11-20T03:58:50;95756.03;;;5.14;nan
23303;BME280;11820;48.738;9.092;2022-11-20T04:01:21;95765.03;;;5.10;nan
23303;BME280;11820;48.738;9.092;2022-11-20T04:03:47;95752.50;;;5.15;nan
23303;BME280;11820;48.738;9.092;2022-11-20T04:06:18;95761.84;;;5.08;nan
23303;BME280;11820;48.738;9.092;2022-11-20T04:08:44;95760.31;;;4.99;nan
23303;BME280;11820;48.738;9.092;2022-11-20T04:13:36;95759.44;;;5.06;nan
23303;BME280;11820;48.738;9.092;2022-11-20T04:16:02;95759.66;;;4.97;nan
23303;BME280;11820;48.738;9.092;2022-11-20T04:18:28;95759.03;;;4.95;nan
23303;BME280;11820;48.738;9.092;2022-11-20T04:20:53;95751.97;;;4.97;nan
23303;BME280;11820;48.738;9.092;2022-11-20T04:23:18;95754.22;;;5.00;nan
23303;BME280;11820;48.738;9.092;2022-11-20T04:25:43;95759.75;;;4.89;nan
23303;BME280;11820;48.738;9.092;2022-11-20T04:28:09;95758.78;;;4.90;nan
23303;BME280;11820;48.738;9.092;2022-11-20T04:30:34;95756.69;;;4.93;nan
23303;BME280;11820;48.738;9.092;2022-11-20T04:33:00;95756.69;;;4.93;nan
23303;BME280;11820;48.738;9.092;2022-11-20T04:35:25;95754.03;;;5.01;nan
23303;BME280;11820;48.738;9.092;2022-11-20T04:37:51;95749.78;;;4.94;nan
23303;BME280;11820;48.738;9.092;2022-11-20T04:40:17;95740.88;;;5.04;nan
23303;BME280;11820;48.738;9.092;2022-11-20T04:42:42;95747.56;;;5.13;nan
23303;BME280;11820;48.738;9.092;2022-11-20T04:45:08;95745.88;;;5.20;nan
23303;BME280;11820;48.738;9.092;2022-11-20T04:47:33;95745.44;;;5.17;nan
23303;BME280;11820;48.738;9.092;2022-11-20T04:49:58;95750.13;;;5.13;nan
23303;BME280;11820;48.738;9.092;2022-11-20T04:52:24;95746.00;;;5.27;nan
23303;BME280;11820;48.738;9.092;2022-11-20T04:54:49;95745.06;;;5.20;nan
23303;BME280;11820;48.738;9.092;2022-11-20T04:57:17;95743.22;;;5.14;nan
23303;BME280;11820;48.738;9.092;2022-11-20T04:59:43;95743.59;;;5.25;nan
23303;BME280;11820;48.738;9.092;2022-11-20T05:02:08;95745.69;;;5.22;nan
23303;BME280;11820;48.738;9.092;2022-11-20T05:04:34;95744.56;;;5.24;nan
23303;BME280;11820;48.738;9.092;2022-11-20T05:06:59;95743.09;;;5.30;nan
23303;BME280;11820;48.738;9.092;2022-11-20T05:09:24;95745.66;;;5.30;nan
23303;BME280;11820;48.738;9.092;2022-11-20T05:11:50;95740.53;;;5.30;nan
23303;BME280;11820;48.738;9.092;2022-11-20T05:14:15;95739.81;;;5.36;nan
23303;BME280;11820;48.738;9.092;2022-11-20T05:16:40;95738.56;;;5.32;nan
23303;BME280;11820;48.738;9.092;2022-11-20T05:19:06;95741.91;;;5.32;nan
23303;BME280;11820;48.738;9.092;2022-11-20T05:21:32;95735.50;;;5.36;nan
23303;BME280;11820;48.738;9.092;2022-11-20T05:23:57;95744.25;;;5.42;nan
23303;BME280;11820;48.738;9.092;2022-11-20T05:26:23;95735.94;;;5.40;nan
23303;BME280;11820;48.738;9.092;2022-11-20T05:28:49;95731.63;;;5.40;nan
23303;BME280;11820;48.738;9.092;2022-11-20T05:31:20;95730.44;;;5.43;nan
23303;BME280;11820;48.738;9.092;2022-11-20T05:33:46;95729.06;;;5.40;nan
23303;BME280;11820;48.738;9.092;2022-11-20T05:36:13;95741.69;;;5.42;nan
23303;BME280;11820;48.738;9.092;2022-11-20T05:38:39;95747.06;;;5.47;nan
23303;BME280;11820;48.738;9.092;2022-11-20T05:41:09;95733.13;;;5.49;nan
23303;BME280;11820;48.738;9.092;2022-11-20T05:43:35;95739.56;;;5.45;nan
23303;BME280;11820;48.738;9.092;2022-11-20T05:46:03;95741.94;;;5.47;nan
23303;BME280;11820;48.738;9.092;2022-11-20T05:48:28;95728.81;;;5.50;nan
23303;BME280;11820;48.738;9.092;2022-11-20T05:50:54;95728.25;;;5.54;nan
23303;BME280;11820;48.738;9.092;2022-11-20T05:53:19;95726.25;;;5.50;nan
23303;BME280;11820;48.738;9.092;2022-11-20T05:55:44;95737.16;;;5.44;nan
23303;BME280;11820;48.738;9.092;2022-11-20T05:58:10;95725.31;;;5.43;nan
23303;BME280;11820;48.738;9.092;2022-11-20T06:00:35;95732.03;;;5.44;nan
23303;BME280;11820;48.738;9.092;2022-11-20T06:03:01;95727.84;;;5.51;nan
23303;BME280;11820;48.738;9.092;2022-11-20T06:05:27;95729.41;;;5.52;nan
23303;BME280;11820;48.738;9.092;2022-11-20T06:07:52;95731.00;;;5.53;nan
23303;BME280;11820;48.738;9.092;2022-11-20T06:10:17;95738.34;;;5.56;nan
23303;BME280;11820;48.738;9.092;2022-11-20T06:12:43;95739.31;;;5.55;nan
23303;BME280;11820;48.738;9.092;2022-11-20T06:15:08;95736.66;;;5.63;nan
23303;BME280;11820;48.738;9.092;2022-11-20T06:17:34;95741.19;;;5.61;nan
23303;BME280;11820;48.738;9.092;2022-11-20T06:19:59;95741.78;;;5.63;nan
23303;BME280;11820;48.738;9.092;2022-11-20T06:22:24;95737.91;;;5.67;nan
23303;BME280;11820;48.738;9.092;2022-11-20T06:24:50;95736.16;;;5.67;nan
23303;BME280;11820;48.738;9.092;2022-11-20T06:27:15;95734.38;;;5.68;nan
23303;BME280;11820;48.738;9.092;2022-11-20T06:29:41;95732.78;;;5.67;nan
23303;BME280;11820;48.738;9.092;2022-11-20T06:32:06;95723.75;;;5.71;nan
23303;BME280;11820;48.738;9.092;2022-11-20T06:34:31;95729.59;;;5.65;nan
23303;BME280;11820;48.738;9.092;2022-11-20T06:36:57;95721.38;;;5.69;nan
23303;BME280;11820;48.738;9.092;2022-11-20T06:39:22;95728.81;;;5.64;nan
23303;BME280;11820;48.738;9.092;2022-11-20T06:41:47;95726.16;;;5.72;nan
23303;BME280;11820;48.738;9.092;2022-11-20T06:44:13;95738.34;;;5.70;nan
23303;BME280;11820;48.738;9.092;2022-11-20T06:46:38;95733.75;;;5.66;nan
23303;BME280;11820;48.738;9.092;2022-11-20T06:49:03;95736.16;;;5.67;nan
23303;BME280;11820;48.738;9.092;2022-11-20T06:51:29;95734.00;;;5.71;nan
23303;BME280;11820;48.738;9.092;2022-11-20T06:53:55;95736.94;;;5.68;nan
23303;BME280;11820;48.738;9.092;2022-11-20T06:56:20;95746.47;;;5.59;nan
23303;BME280;11820;48.738;9.092;2022-11-20T06:58:45;95747.78;;;5.55;nan
23303;BME280;11820;48.738;9.092;2022-11-20T07:01:12;95744.09;;;5.58;nan
23303;BME280;11820;48.738;9.092;2022-11-20T07:03:38;95746.56;;;5.66;nan
23303;BME280;11820;48.738;9.092;2022-11-20T07:06:05;95746.56;;;5.66;nan
23303;BME280;11820;48.738;9.092;2022-11-20T07:08:31;95750.81;;;5.59;nan
23303;BME280;11820;48.738;9.092;2022-11-20T07:11:01;95754.34;;;5.58;nan
23303;BME280;11820;48.738;9.092;2022-11-20T07:13:27;95743.50;;;5.70;nan
23303;BME280;11820;48.738;9.092;2022-11-20T07:15:53;95751.69;;;5.66;nan
23303;BME280;11820;48.738;9.092;2022-11-20T07:18:18;95741.69;;;5.71;nan
23303;BME280;11820;48.738;9.092;2022-11-20T07:20:43;95743.84;;;5.67;nan
23303;BME280;11820;48.738;9.092;2022-11-20T07:23:09;95739.94;;;5.71;nan
23303;BME280;11820;48.738;9.092;2022-11-20T07:25:34;95745.69;;;5.73;nan
23303;BME280;11820;48.738;9.092;2022-11-20T07:28:00;95751.34;;;5.69;nan
23303;BME280;11820;48.738;9.092;2022-11-20T07:30:30;95750.38;;;5.70;nan
23303;BME280;11820;48.738;9.092;2022-11-20T07:32:56;95758.88;;;5.70;nan
23303;BME280;11820;48.738;9.092;2022-11-20T07:35:23;95760.56;;;5.78;nan
23303;BME280;11820;48.738;9.092;2022-11-20T07:37:48;95767.44;;;5.63;nan
23303;BME280;11820;48.738;9.092;2022-11-20T07:40:15;95760.09;;;5.74;nan
23303;BME280;11820;48.738;9.092;2022-11-20T07:42:54;95755.94;;;5.73;nan
23303;BME280;11820;48.738;9.092;2022-11-20T07:45:21;95762.22;;;5.71;nan
23303;BME280;11820;48.738;9.092;2022-11-20T07:47:47;95762.19;;;5.79;nan
23303;BME280;11820;48.738;9.092;2022-11-20T07:50:13;95755.22;;;5.87;nan
23303;BME280;11820;48.738;9.092;2022-11-20T07:52:38;95756.44;;;5.91;nan
23303;BME280;11820;48.738;9.092;2022-11-20T07:55:04;95762.00;;;5.95;nan
23303;BME280;11820;48.738;9.092;2022-11-20T07:57:30;95760.75;;;5.91;nan
23303;BME280;11820;48.738;9.092;2022-11-20T07:59:55;95762.44;;;5.98;nan
23303;BME280;11820;48.738;9.092;2022-11-20T08:02:20;95768.09;;;6.08;nan
23303;BME280;11820;48.738;9.092;2022-11-20T08:04:46;95771.00;;;6.20;nan
23303;BME280;11820;48.738;9.092;2022-11-20T08:07:11;95773.84;;;6.10;nan
23303;BME280;11820;48.738;9.092;2022-11-20T08:09:36;95778.91;;;6.18;nan
23303;BME280;11820;48.738;9.092;2022-11-20T08:12:02;95785.72;;;6.26;nan
23303;BME280;11820;48.738;9.092;2022-11-20T08:14:45;95779.41;;;6.28;nan
23303;BME280;11820;48.738;9.092;2022-11-20T08:17:11;95788.69;;;6.29;nan
23303;BME280;11820;48.738;9.092;2022-11-20T08:19:37;95778.78;;;6.26;nan
23303;BME280;11820;48.738;9.092;2022-11-20T08:22:02;95795.00;;;6.27;nan
23303;BME280;11820;48.738;9.092;2022-11-20T08:24:27;95796.75;;;6.26;nan
23303;BME280;11820;48.738;9.092;2022-11-20T08:26:53;95787.72;;;6.30;nan
23303;BME280;11820;48.738;9.092;2022-11-20T08:29:18;95797.63;;;6.33;nan
23303;BME280;11820;48.738;9.092;2022-11-20T08:31:43;95791.72;;;6.33;nan
23303;BME280;11820;48.738;9.092;2022-11-20T08:34:09;95791.53;;;6.34;nan
23303;BME280;11820;48.738;9.092;2022-11-20T08:36:35;95794.63;;;6.44;nan
23303;BME280;11820;48.738;9.092;2022-11-20T08:39:03;95787.63;;;6.52;nan
23303;BME280;11820;48.738;9.092;2022-11-20T08:41:29;95790.94;;;6.67;nan
23303;BME280;11820;48.738;9.092;2022-11-20T08:44:05;95792.16;;;6.71;nan
23303;BME280;11820;48.738;9.092;2022-11-20T08:46:36;95791.94;;;6.87;nan
23303;BME280;11820;48.738;9.092;2022-11-20T08:49:07;95790.97;;;6.88;nan
23303;BME280;11820;48.738;9.092;2022-11-20T08:51:33;95799.59;;;7.02;nan
23303;BME280;11820;48.738;9.092;2022-11-20T08:53:58;95791.00;;;7.09;nan
23303;BME280;11820;48.738;9.092;2022-11-20T08:56:23;95792.06;;;7.21;nan
23303;BME280;11820;48.738;9.092;2022-11-20T08:58:50;95794.66;;;7.21;nan
23303;BME280;11820;48.738;9.092;2022-11-20T09:01:16;95798.13;;;7.14;nan
23303;BME280;11820;48.738;9.092;2022-11-20T09:03:41;95806.94;;;7.05;nan
23303;BME280;11820;48.738;9.092;2022-11-20T09:06:07;95805.34;;;7.04;nan
23303;BME280;11820;48.738;9.092;2022-11-20T09:08:33;95807.06;;;6.97;nan
23303;BME280;11820;48.738;9.092;2022-11-20T09:10:59;95805.91;;;6.99;nan
23303;BME280;11820;48.738;9.092;2022-11-20T09:13:26;95814.53;;;6.92;nan
23303;BME280;11820;48.738;9.092;2022-11-20T09:16:06;95819.84;;;6.90;nan
23303;BME280;11820;48.738;9.092;2022-11-20T09:18:32;95812.06;;;6.84;nan
23303;BME280;11820;48.738;9.092;2022-11-20T09:21:02;95810.63;;;6.96;nan
23303;BME280;11820;48.738;9.092;2022-11-20T09:23:31;95820.38;;;6.86;nan
23303;BME280;11820;48.738;9.092;2022-11-20T09:25:57;95820.00;;;6.89;nan
23303;BME280;11820;48.738;9.092;2022-11-20T09:28:25;95824.28;;;6.82;nan
23303;BME280;11820;48.738;9.092;2022-11-20T09:30:50;95831.38;;;6.80;nan
23303;BME280;11820;48.738;9.092;2022-11-20T09:33:17;95827.75;;;6.74;nan
23303;BME280;11820;48.738;9.092;2022-11-20T09:35:43;95829.88;;;6.85;nan
23303;BME280;11820;48.738;9.092;2022-11-20T09:38:09;95827.69;;;6.82;nan
23303;BME280;11820;48.738;9.092;2022-11-20T09:40:38;95837.38;;;6.87;nan
23303;BME280;11820;48.738;9.092;2022-11-20T09:46:07;95838.22;;;6.73;nan
23303;BME280;11820;48.738;9.092;2022-11-20T09:48:51;95839.47;;;6.77;nan
23303;BME280;11820;48.738;9.092;2022-11-20T09:54:19;95830.44;;;6.66;nan
23303;BME280;11820;48.738;9.092;2022-11-20T09:56:59;95838.03;;;6.74;nan
23303;BME280;11820;48.738;9.092;2022-11-20T10:02:15;95821.03;;;6.73;nan
23303;BME280;11820;48.738;9.092;2022-11-20T10:04:45;95830.97;;;6.76;nan
23303;BME280;11820;48.738;9.092;2022-11-20T10:07:51;95822.75;;;6.66;nan
23303;BME280;11820;48.738;9.092;2022-11-20T10:10:34;95828.13;;;6.71;nan
23303;BME280;11820;48.738;9.092;2022-11-20T10:16:08;95832.38;;;6.79;nan
23303;BME280;11820;48.738;9.092;2022-11-20T10:22:04;95835.22;;;6.69;nan
23303;BME280;11820;48.738;9.092;2022-11-20T10:27:28;95847.91;;;6.56;nan
23303;BME280;11820;48.738;9.092;2022-11-20T10:32:38;95845.31;;;6.71;nan
23303;BME280;11820;48.738;9.092;2022-11-20T10:35:23;95830.16;;;6.76;nan
23303;BME280;11820;48.738;9.092;2022-11-20T10:37:58;95842.41;;;6.74;nan
23303;BME280;11820;48.738;9.092;2022-11-20T10:42:53;95841.25;;;6.76;nan
23303;BME280;11820;48.738;9.092;2022-11-20T10:47:50;95832.56;;;6.77;nan
23303;BME280;11820;48.738;9.092;2022-11-20T10:50:19;95829.34;;;6.75;nan
23303;BME280;11820;48.738;9.092;2022-11-20T10:53:04;95831.75;;;6.77;nan
23303;BME280;11820;48.738;9.092;2022-11-20T10:58:17;95824.06;;;6.62;nan
23303;BME280;11820;48.738;9.092;2022-11-20T11:00:47;95828.75;;;6.73;nan
23303;BME280;11820;48.738;9.092;2022-11-20T11:03:29;95822.16;;;6.85;nan
23303;BME280;11820;48.738;9.092;2022-11-20T11:08:28;95822.66;;;6.95;nan
23303;BME280;11820;48.738;9.092;2022-11-20T11:11:00;95821.00;;;6.88;nan
23303;BME280;11820;48.738;9.092;2022-11-20T11:13:29;95816.91;;;6.93;nan
23303;BME280;11820;48.738;9.092;2022-11-20T11:15:56;95812.78;;;7.13;nan
23303;BME280;11820;48.738;9.092;2022-11-20T11:18:33;95806.16;;;7.25;nan
23303;BME280;11820;48.738;9.092;2022-11-20T11:21:01;95809.75;;;7.31;nan
23303;BME280;11820;48.738;9.092;2022-11-20T11:23:37;95797.97;;;7.64;nan
23303;BME280;11820;48.738;9.092;2022-11-20T11:26:06;95789.19;;;7.79;nan
23303;BME280;11820;48.738;9.092;2022-11-20T11:28:32;95788.94;;;7.47;nan
23303;BME280;11820;48.738;9.092;2022-11-20T11:30:58;95778.47;;;8.37;nan
23303;BME280;11820;48.738;9.092;2022-11-20T11:33:27;95775.94;;;9.36;nan
23303;BME280;11820;48.738;9.092;2022-11-20T11:35:58;95774.75;;;9.83;nan
23303;BME280;11820;48.738;9.092;2022-11-20T11:40:53;95769.00;;;10.58;nan
23303;BME280;11820;48.738;9.092;2022-11-20T11:43:28;95767.31;;;10.76;nan
23303;BME280;11820;48.738;9.092;2022-11-20T11:46:35;95755.91;;;11.76;nan
23303;BME280;11820;48.738;9.092;2022-11-20T11:51:34;95762.56;;;11.35;nan
23303;BME280;11820;48.738;9.092;2022-11-20T11:54:10;95750.97;;;12.29;nan
23303;BME280;11820;48.738;9.092;2022-11-20T11:56:38;95753.81;;;12.27;nan
23303;BME280;11820;48.738;9.092;2022-11-20T11:59:06;95748.25;;;12.24;nan
23303;BME280;11820;48.738;9.092;2022-11-20T12:01:47;95761.75;;;11.90;nan
23303;BME280;11820;48.738;9.092;2022-11-20T12:04:42;95760.63;;;11.30;nan
23303;BME280;11820;48.738;9.092;2022-11-20T12:10:00;95747.22;;;11.09;nan
23303;BME280;11820;48.738;9.092;2022-11-20T12:12:48;95759.91;;;10.42;nan
23303;BME280;11820;48.738;9.092;2022-11-20T12:15:23;95748.16;;;10.90;nan
23303;BME280;11820;48.738;9.092;2022-11-20T12:17:50;95746.00;;;10.37;nan
23303;BME280;11820;48.738;9.092;2022-11-20T12:20:15;95743.84;;;11.09;nan
23303;BME280;11820;48.738;9.092;2022-11-20T12:22:50;95745.84;;;12.22;nan
23303;BME280;11820;48.738;9.092;2022-11-20T12:25:30;95738.44;;;11.41;nan
23303;BME280;11820;48.738;9.092;2022-11-20T12:30:28;95733.00;;;11.49;nan
23303;BME280;11820;48.738;9.092;2022-11-20T12:41:18;95744.53;;;9.00;nan
23303;BME280;11820;48.738;9.092;2022-11-20T12:44:17;95744.75;;;9.63;nan
23303;BME280;11820;48.738;9.092;2022-11-20T12:49:56;95734.69;;;11.06;nan
23303;BME280;11820;48.738;9.092;2022-11-20T12:52:30;95747.69;;;10.12;nan
23303;BME280;11820;48.738;9.092;2022-11-20T13:00:29;95756.44;;;9.01;nan
23303;BME280;11820;48.738;9.092;2022-11-20T13:03:23;95750.09;;;9.16;nan
23303;BME280;11820;48.738;9.092;2022-11-20T13:08:28;95742.59;;;9.21;nan
23303;BME280;11820;48.738;9.092;2022-11-20T13:13:46;95766.34;;;9.04;nan
23303;BME280;11820;48.738;9.092;2022-11-20T13:16:25;95753.25;;;8.86;nan
23303;BME280;11820;48.738;9.092;2022-11-20T13:18:54;95763.13;;;8.76;nan
23303;BME280;11820;48.738;9.092;2022-11-20T13:21:23;95756.34;;;8.62;nan
23303;BME280;11820;48.738;9.092;2022-11-20T13:24:07;95757.31;;;8.54;nan
23303;BME280;11820;48.738;9.092;2022-11-20T13:26:45;95764.19;;;8.41;nan
23303;BME280;11820;48.738;9.092;2022-11-20T13:29:18;95757.13;;;8.56;nan
23303;BME280;11820;48.738;9.092;2022-11-20T13:31:46;95748.69;;;8.28;nan
23303;BME280;11820;48.738;9.092;2022-11-20T13:34:32;95745.75;;;8.37;nan
23303;BME280;11820;48.738;9.092;2022-11-20T13:36:59;95744.19;;;8.43;nan
23303;BME280;11820;48.738;9.092;2022-11-20T13:39:27;95737.28;;;8.50;nan
23303;BME280;11820;48.738;9.092;2022-11-20T13:41:58;95751.50;;;8.33;nan
23303;BME280;11820;48.738;9.092;2022-11-20T13:44:44;95750.28;;;8.29;nan
23303;BME280;11820;48.738;9.092;2022-11-20T13:47:23;95750.66;;;8.19;nan
23303;BME280;11820;48.738;9.092;2022-11-20T13:49:49;95751.19;;;8.55;nan
23303;BME280;11820;48.738;9.092;2022-11-20T13:52:39;95738.06;;;8.44;nan
23303;BME280;11820;48.738;9.092;2022-11-20T13:58:24;95730.28;;;8.31;nan
23303;BME280;11820;48.738;9.092;2022-11-20T14:01:08;95724.66;;;8.74;nan
23303;BME280;11820;48.738;9.092;2022-11-20T14:03:34;95727.41;;;8.60;nan
23303;BME280;11820;48.738;9.092;2022-11-20T14:06:05;95722.22;;;8.47;nan
23303;BME280;11820;48.738;9.092;2022-11-20T14:08:42;95732.91;;;8.44;nan
23303;BME280;11820;48.738;9.092;2022-11-20T14:14:02;95716.63;;;8.37;nan
23303;BME280;11820;48.738;9.092;2022-11-20T14:16:31;95725.34;;;8.36;nan
23303;BME280;11820;48.738;9.092;2022-11-20T14:21:48;95727.19;;;8.08;nan
23303;BME280;11820;48.738;9.092;2022-11-20T14:24:22;95721.19;;;7.95;nan
23303;BME280;11820;48.738;9.092;2022-11-20T14:26:49;95724.88;;;7.79;nan
23303;BME280;11820;48.738;9.092;2022-11-20T14:29:17;95731.22;;;7.83;nan
23303;BME280;11820;48.738;9.092;2022-11-20T14:31:44;95729.84;;;7.87;nan
23303;BME280;11820;48.738;9.092;2022-11-20T14:34:22;95722.63;;;7.76;nan
23303;BME280;11820;48.738;9.092;2022-11-20T14:36:53;95716.34;;;7.79;nan
23303;BME280;11820;48.738;9.092;2022-11-20T14:39:21;95714.91;;;7.76;nan
23303;BME280;11820;48.738;9.092;2022-11-20T14:41:53;95719.25;;;7.69;nan
23303;BME280;11820;48.738;9.092;2022-11-20T14:44:33;95710.03;;;7.81;nan
23303;BME280;11820;48.738;9.092;2022-11-20T14:47:00;95706.50;;;7.55;nan
23303;BME280;11820;48.738;9.092;2022-11-20T14:49:29;95700.31;;;7.49;nan
23303;BME280;11820;48.738;9.092;2022-11-20T14:51:59;95686.34;;;7.58;nan
23303;BME280;11820;48.738;9.092;2022-11-20T14:54:25;95682.47;;;7.41;nan
23303;BME280;11820;48.738;9.092;2022-11-20T14:56:56;95683.63;;;7.39;nan
23303;BME280;11820;48.738;9.092;2022-11-20T14:59:26;95682.47;;;7.41;nan
23303;BME280;11820;48.738;9.092;2022-11-20T15:02:03;95679.13;;;7.47;nan